sensor_id;sensor_type;location;lat;lon;timestamp;temperature;humidity
61841;DHT22;47773;53.174;6.614;2023-03-16T00:01:19;4.40;99.90
61841;DHT22;47773;53.174;6.614;2023-03-16T00:03:46;4.40;99.90
61841;DHT22;47773;53.174;6.614;2023-03-16T00:06:12;4.50;99.90
61841;DHT22;47773;53.174;6.614;2023-03-16T00:08:37;4.50;99.90
61841;DHT22;47773;53.174;6.614;2023-03-16T00:11:03;4.50;99.90
61841;DHT22;47773;53.174;6.614;2023-03-16T00:13:29;4.50;99.90
61841;DHT22;47773;53.174;6.614;2023-03-16T00:15:57;4.50;99.90
61841;DHT22;47773;53.174;6.614;2023-03-16T00:18:25;4.50;99.90
61841;DHT22;47773;53.174;6.614;2023-03-16T00:20:56;4.50;99.90
61841;DHT22;47773;53.174;6.614;2023-03-16T00:23:23;4.50;99.90
61841;DHT22;47773;53.174;6.614;2023-03-16T00:25:55;4.60;99.90
61841;DHT22;47773;53.174;6.614;2023-03-16T00:28:22;4.60;99.90
61841;DHT22;47773;53.174;6.614;2023-03-16T00:30:48;4.50;99.90
61841;DHT22;47773;53.174;6.614;2023-03-16T00:33:14;4.50;99.90
61841;DHT22;47773;53.174;6.614;2023-03-16T00:35:39;4.60;99.90
61841;DHT22;47773;53.174;6.614;2023-03-16T00:38:16;4.50;99.90
61841;DHT22;47773;53.174;6.614;2023-03-16T00:40:42;4.50;99.90
61841;DHT22;47773;53.174;6.614;2023-03-16T00:43:08;4.60;99.90
61841;DHT22;47773;53.174;6.614;2023-03-16T00:45:34;4.50;99.90
61841;DHT22;47773;53.174;6.614;2023-03-16T00:47:59;4.50;99.90
61841;DHT22;47773;53.174;6.614;2023-03-16T00:50:26;4.60;99.90
61841;DHT22;47773;53.174;6.614;2023-03-16T00:52:52;4.60;99.90
61841;DHT22;47773;53.174;6.614;2023-03-16T00:55:19;4.60;99.90
61841;DHT22;47773;53.174;6.614;2023-03-16T00:57:44;4.60;99.90
61841;DHT22;47773;53.174;6.614;2023-03-16T01:00:11;4.60;99.90
61841;DHT22;47773;53.174;6.614;2023-03-16T01:02:40;4.60;99.90
61841;DHT22;47773;53.174;6.614;2023-03-16T01:05:07;4.60;99.90
61841;DHT22;47773;53.174;6.614;2023-03-16T01:07:34;4.60;99.90
61841;DHT22;47773;53.174;6.614;2023-03-16T01:10:02;4.60;99.90
61841;DHT22;47773;53.174;6.614;2023-03-16T01:12:28;4.60;99.90
61841;DHT22;47773;53.174;6.614;2023-03-16T01:14:54;4.60;99.90
61841;DHT22;47773;53.174;6.614;2023-03-16T01:17:20;4.60;99.90
61841;DHT22;47773;53.174;6.614;2023-03-16T01:19:47;4.60;99.90
61841;DHT22;47773;53.174;6.614;2023-03-16T01:22:13;4.60;99.90
61841;DHT22;47773;53.174;6.614;2023-03-16T01:24:40;4.60;99.90
61841;DHT22;47773;53.174;6.614;2023-03-16T01:27:06;4.60;99.90
61841;DHT22;47773;53.174;6.614;2023-03-16T01:29:32;4.60;99.90
61841;DHT22;47773;53.174;6.614;2023-03-16T01:31:59;4.70;99.90
61841;DHT22;47773;53.174;6.614;2023-03-16T01:34:25;4.70;99.90
61841;DHT22;47773;53.174;6.614;2023-03-16T01:36:51;4.60;99.90
61841;DHT22;47773;53.174;6.614;2023-03-16T01:39:17;4.60;99.90
61841;DHT22;47773;53.174;6.614;2023-03-16T01:41:44;4.60;99.90
61841;DHT22;47773;53.174;6.614;2023-03-16T01:44:20;4.70;99.90
61841;DHT22;47773;53.174;6.614;2023-03-16T01:46:49;4.60;99.90
61841;DHT22;47773;53.174;6.614;2023-03-16T01:49:34;4.60;99.90
61841;DHT22;47773;53.174;6.614;2023-03-16T01:52:20;4.60;99.90
61841;DHT22;47773;53.174;6.614;2023-03-16T01:54:50;4.60;99.90
61841;DHT22;47773;53.174;6.614;2023-03-16T01:57:22;4.60;99.90
61841;DHT22;47773;53.174;6.614;2023-03-16T02:02:35;4.60;99.90
61841;DHT22;47773;53.174;6.614;2023-03-16T02:05:06;4.70;99.90
61841;DHT22;47773;53.174;6.614;2023-03-16T02:07:39;4.70;99.90
61841;DHT22;47773;53.174;6.614;2023-03-16T02:10:09;4.70;99.90
61841;DHT22;47773;53.174;6.614;2023-03-16T02:12:36;4.70;99.90
61841;DHT22;47773;53.174;6.614;2023-03-16T02:15:02;4.70;99.90
61841;DHT22;47773;53.174;6.614;2023-03-16T02:17:30;4.70;99.90
61841;DHT22;47773;53.174;6.614;2023-03-16T02:22:44;4.70;99.90
61841;DHT22;47773;53.174;6.614;2023-03-16T02:25:11;4.70;99.90
61841;DHT22;47773;53.174;6.614;2023-03-16T02:28:06;4.70;99.90
61841;DHT22;47773;53.174;6.614;2023-03-16T02:30:35;4.70;99.90
61841;DHT22;47773;53.174;6.614;2023-03-16T02:33:01;4.70;99.90
61841;DHT22;47773;53.174;6.614;2023-03-16T02:35:29;4.80;99.90
61841;DHT22;47773;53.174;6.614;2023-03-16T02:37:55;4.70;99.90
61841;DHT22;47773;53.174;6.614;2023-03-16T02:40:24;4.80;99.90
61841;DHT22;47773;53.174;6.614;2023-03-16T02:45:23;4.80;99.90
61841;DHT22;47773;53.174;6.614;2023-03-16T02:47:51;4.80;99.90
61841;DHT22;47773;53.174;6.614;2023-03-16T02:50:18;4.80;99.90
61841;DHT22;47773;53.174;6.614;2023-03-16T02:52:44;4.80;99.90
61841;DHT22;47773;53.174;6.614;2023-03-16T02:55:10;4.90;99.90
61841;DHT22;47773;53.174;6.614;2023-03-16T02:57:35;4.90;99.90
61841;DHT22;47773;53.174;6.614;2023-03-16T03:00:01;4.90;99.90
61841;DHT22;47773;53.174;6.614;2023-03-16T03:02:31;4.90;99.90
61841;DHT22;47773;53.174;6.614;2023-03-16T03:04:58;4.90;99.90
61841;DHT22;47773;53.174;6.614;2023-03-16T03:07:23;4.90;99.90
61841;DHT22;47773;53.174;6.614;2023-03-16T03:09:56;4.90;99.90
61841;DHT22;47773;53.174;6.614;2023-03-16T03:12:22;4.90;99.90
61841;DHT22;47773;53.174;6.614;2023-03-16T03:14:48;4.90;99.90
61841;DHT22;47773;53.174;6.614;2023-03-16T03:17:13;4.90;99.90
61841;DHT22;47773;53.174;6.614;2023-03-16T03:19:39;5.00;99.90
61841;DHT22;47773;53.174;6.614;2023-03-16T03:22:05;5.00;99.90
61841;DHT22;47773;53.174;6.614;2023-03-16T03:24:32;4.90;99.90
61841;DHT22;47773;53.174;6.614;2023-03-16T03:26:58;5.00;99.90
61841;DHT22;47773;53.174;6.614;2023-03-16T03:29:33;5.00;99.90
61841;DHT22;47773;53.174;6.614;2023-03-16T03:32:01;5.00;99.90
61841;DHT22;47773;53.174;6.614;2023-03-16T03:34:29;5.00;99.90
61841;DHT22;47773;53.174;6.614;2023-03-16T03:36:56;4.90;99.90
61841;DHT22;47773;53.174;6.614;2023-03-16T03:39:22;4.90;99.90
61841;DHT22;47773;53.174;6.614;2023-03-16T03:41:48;5.00;99.90
61841;DHT22;47773;53.174;6.614;2023-03-16T03:44:13;4.90;99.90
61841;DHT22;47773;53.174;6.614;2023-03-16T03:46:39;4.90;99.90
61841;DHT22;47773;53.174;6.614;2023-03-16T03:49:05;4.90;99.90
61841;DHT22;47773;53.174;6.614;2023-03-16T03:51:31;4.90;99.90
61841;DHT22;47773;53.174;6.614;2023-03-16T03:53:58;4.90;99.90
61841;DHT22;47773;53.174;6.614;2023-03-16T03:56:24;4.90;99.90
61841;DHT22;47773;53.174;6.614;2023-03-16T03:58:50;4.90;99.90
61841;DHT22;47773;53.174;6.614;2023-03-16T04:01:16;4.90;99.90
61841;DHT22;47773;53.174;6.614;2023-03-16T04:03:43;4.90;99.90
61841;DHT22;47773;53.174;6.614;2023-03-16T04:06:09;4.90;99.90
61841;DHT22;47773;53.174;6.614;2023-03-16T04:08:35;4.90;99.90
61841;DHT22;47773;53.174;6.614;2023-03-16T04:11:01;4.90;99.90
61841;DHT22;47773;53.174;6.614;2023-03-16T04:13:27;4.80;99.90
61841;DHT22;47773;53.174;6.614;2023-03-16T04:15:57;4.80;99.90
61841;DHT22;47773;53.174;6.614;2023-03-16T04:18:23;4.90;99.90
61841;DHT22;47773;53.174;6.614;2023-03-16T04:20:48;4.80;99.90
61841;DHT22;47773;53.174;6.614;2023-03-16T04:23:14;4.80;99.90
61841;DHT22;47773;53.174;6.614;2023-03-16T04:25:41;4.80;99.90
61841;DHT22;47773;53.174;6.614;2023-03-16T04:28:07;4.80;99.90
61841;DHT22;47773;53.174;6.614;2023-03-16T04:30:33;4.90;99.90
61841;DHT22;47773;53.174;6.614;2023-03-16T04:32:59;4.80;99.90
61841;DHT22;47773;53.174;6.614;2023-03-16T04:35:25;4.80;99.90
61841;DHT22;47773;53.174;6.614;2023-03-16T04:37:51;4.80;99.90
61841;DHT22;47773;53.174;6.614;2023-03-16T04:40:16;4.80;99.90
61841;DHT22;47773;53.174;6.614;2023-03-16T04:42:45;4.80;99.90
61841;DHT22;47773;53.174;6.614;2023-03-16T04:45:12;4.90;99.90
61841;DHT22;47773;53.174;6.614;2023-03-16T04:47:39;4.80;99.90
61841;DHT22;47773;53.174;6.614;2023-03-16T04:50:05;4.80;99.90
61841;DHT22;47773;53.174;6.614;2023-03-16T04:52:31;4.80;99.90
61841;DHT22;47773;53.174;6.614;2023-03-16T04:54:57;4.80;99.90
61841;DHT22;47773;53.174;6.614;2023-03-16T04:57:22;4.90;99.90
61841;DHT22;47773;53.174;6.614;2023-03-16T04:59:49;4.90;99.90
61841;DHT22;47773;53.174;6.614;2023-03-16T05:02:15;4.80;99.90
61841;DHT22;47773;53.174;6.614;2023-03-16T05:04:42;4.80;99.90
61841;DHT22;47773;53.174;6.614;2023-03-16T05:07:08;4.90;99.90
61841;DHT22;47773;53.174;6.614;2023-03-16T05:09:33;4.80;99.90
61841;DHT22;47773;53.174;6.614;2023-03-16T05:11:59;4.80;99.90
61841;DHT22;47773;53.174;6.614;2023-03-16T05:14:25;4.80;99.90
61841;DHT22;47773;53.174;6.614;2023-03-16T05:16:51;4.80;99.90
61841;DHT22;47773;53.174;6.614;2023-03-16T05:19:17;4.80;99.90
61841;DHT22;47773;53.174;6.614;2023-03-16T05:21:43;4.80;99.90
61841;DHT22;47773;53.174;6.614;2023-03-16T05:24:10;4.80;99.90
61841;DHT22;47773;53.174;6.614;2023-03-16T05:26:37;4.80;99.90
61841;DHT22;47773;53.174;6.614;2023-03-16T05:29:03;4.80;99.90
61841;DHT22;47773;53.174;6.614;2023-03-16T05:31:29;4.80;99.90
61841;DHT22;47773;53.174;6.614;2023-03-16T05:33:58;4.90;99.90
61841;DHT22;47773;53.174;6.614;2023-03-16T05:36:23;4.80;99.90
61841;DHT22;47773;53.174;6.614;2023-03-16T05:38:50;4.80;99.90
61841;DHT22;47773;53.174;6.614;2023-03-16T05:41:15;4.80;99.90
61841;DHT22;47773;53.174;6.614;2023-03-16T05:43:43;4.80;99.90
61841;DHT22;47773;53.174;6.614;2023-03-16T05:46:09;4.80;99.90
61841;DHT22;47773;53.174;6.614;2023-03-16T05:48:35;4.80;99.90
61841;DHT22;47773;53.174;6.614;2023-03-16T05:51:00;4.80;99.90
61841;DHT22;47773;53.174;6.614;2023-03-16T05:53:33;4.80;99.90
61841;DHT22;47773;53.174;6.614;2023-03-16T05:56:00;4.80;99.90
61841;DHT22;47773;53.174;6.614;2023-03-16T05:58:26;4.80;99.90
61841;DHT22;47773;53.174;6.614;2023-03-16T06:00:52;4.90;99.90
61841;DHT22;47773;53.174;6.614;2023-03-16T06:03:20;4.90;99.90
61841;DHT22;47773;53.174;6.614;2023-03-16T06:05:47;4.90;99.90
61841;DHT22;47773;53.174;6.614;2023-03-16T06:08:12;4.80;99.90
61841;DHT22;47773;53.174;6.614;2023-03-16T06:10:39;4.90;99.90
61841;DHT22;47773;53.174;6.614;2023-03-16T06:13:05;4.80;99.90
61841;DHT22;47773;53.174;6.614;2023-03-16T06:15:31;4.80;99.90
61841;DHT22;47773;53.174;6.614;2023-03-16T06:17:56;4.90;99.90
61841;DHT22;47773;53.174;6.614;2023-03-16T06:20:22;4.90;99.90
61841;DHT22;47773;53.174;6.614;2023-03-16T06:22:47;4.90;99.90
61841;DHT22;47773;53.174;6.614;2023-03-16T06:25:14;4.90;99.90
61841;DHT22;47773;53.174;6.614;2023-03-16T06:27:40;4.90;99.90
61841;DHT22;47773;53.174;6.614;2023-03-16T06:30:07;4.90;99.90
61841;DHT22;47773;53.174;6.614;2023-03-16T06:32:34;4.90;99.90
61841;DHT22;47773;53.174;6.614;2023-03-16T06:35:00;5.00;99.90
61841;DHT22;47773;53.174;6.614;2023-03-16T06:37:28;4.90;99.90
61841;DHT22;47773;53.174;6.614;2023-03-16T06:39:54;5.00;99.90
61841;DHT22;47773;53.174;6.614;2023-03-16T06:42:19;5.00;99.90
61841;DHT22;47773;53.174;6.614;2023-03-16T06:44:45;5.00;99.90
61841;DHT22;47773;53.174;6.614;2023-03-16T06:47:11;5.00;99.90
61841;DHT22;47773;53.174;6.614;2023-03-16T06:49:36;5.00;99.90
61841;DHT22;47773;53.174;6.614;2023-03-16T06:52:02;5.10;99.90
61841;DHT22;47773;53.174;6.614;2023-03-16T06:54:28;5.10;99.90
61841;DHT22;47773;53.174;6.614;2023-03-16T06:56:57;5.10;99.90
61841;DHT22;47773;53.174;6.614;2023-03-16T06:59:22;5.10;99.90
61841;DHT22;47773;53.174;6.614;2023-03-16T07:01:48;5.10;99.90
61841;DHT22;47773;53.174;6.614;2023-03-16T07:04:15;5.10;99.90
61841;DHT22;47773;53.174;6.614;2023-03-16T07:06:40;5.20;99.90
61841;DHT22;47773;53.174;6.614;2023-03-16T07:09:06;5.20;99.90
61841;DHT22;47773;53.174;6.614;2023-03-16T07:11:32;5.20;99.90
61841;DHT22;47773;53.174;6.614;2023-03-16T07:13:58;5.20;99.90
61841;DHT22;47773;53.174;6.614;2023-03-16T07:16:24;5.20;99.90
61841;DHT22;47773;53.174;6.614;2023-03-16T07:18:50;5.20;99.90
61841;DHT22;47773;53.174;6.614;2023-03-16T07:21:17;5.30;99.90
61841;DHT22;47773;53.174;6.614;2023-03-16T07:23:43;5.30;99.90
61841;DHT22;47773;53.174;6.614;2023-03-16T07:26:09;5.30;99.90
61841;DHT22;47773;53.174;6.614;2023-03-16T07:28:37;5.30;99.90
61841;DHT22;47773;53.174;6.614;2023-03-16T07:31:03;5.40;99.90
61841;DHT22;47773;53.174;6.614;2023-03-16T07:33:30;5.40;99.90
61841;DHT22;47773;53.174;6.614;2023-03-16T07:35:56;5.40;99.90
61841;DHT22;47773;53.174;6.614;2023-03-16T07:38:22;5.40;99.90
61841;DHT22;47773;53.174;6.614;2023-03-16T07:40:48;5.50;99.90
61841;DHT22;47773;53.174;6.614;2023-03-16T07:43:14;5.50;99.90
61841;DHT22;47773;53.174;6.614;2023-03-16T07:45:40;5.50;99.90
61841;DHT22;47773;53.174;6.614;2023-03-16T07:48:06;5.50;99.90
61841;DHT22;47773;53.174;6.614;2023-03-16T07:50:31;5.50;99.90
61841;DHT22;47773;53.174;6.614;2023-03-16T07:52:57;5.60;99.90
61841;DHT22;47773;53.174;6.614;2023-03-16T07:55:23;5.60;99.90
61841;DHT22;47773;53.174;6.614;2023-03-16T07:57:49;5.60;99.90
61841;DHT22;47773;53.174;6.614;2023-03-16T08:00:15;5.60;99.90
61841;DHT22;47773;53.174;6.614;2023-03-16T08:02:41;5.60;99.90
61841;DHT22;47773;53.174;6.614;2023-03-16T08:05:07;5.70;99.90
61841;DHT22;47773;53.174;6.614;2023-03-16T08:07:37;5.70;99.90
61841;DHT22;47773;53.174;6.614;2023-03-16T08:10:03;5.80;99.90
61841;DHT22;47773;53.174;6.614;2023-03-16T08:12:28;5.80;99.90
61841;DHT22;47773;53.174;6.614;2023-03-16T08:14:54;5.90;99.90
61841;DHT22;47773;53.174;6.614;2023-03-16T08:17:20;5.90;99.90
61841;DHT22;47773;53.174;6.614;2023-03-16T08:19:46;5.90;99.90
61841;DHT22;47773;53.174;6.614;2023-03-16T08:22:11;5.90;99.90
61841;DHT22;47773;53.174;6.614;2023-03-16T08:24:37;5.90;99.90
61841;DHT22;47773;53.174;6.614;2023-03-16T08:27:03;5.90;99.90
61841;DHT22;47773;53.174;6.614;2023-03-16T08:29:29;5.90;99.90
61841;DHT22;47773;53.174;6.614;2023-03-16T08:31:55;5.90;99.90
61841;DHT22;47773;53.174;6.614;2023-03-16T08:34:22;5.90;99.90
61841;DHT22;47773;53.174;6.614;2023-03-16T08:36:47;5.80;99.90
61841;DHT22;47773;53.174;6.614;2023-03-16T08:39:13;5.80;99.90
61841;DHT22;47773;53.174;6.614;2023-03-16T08:41:40;5.90;99.90
61841;DHT22;47773;53.174;6.614;2023-03-16T08:44:08;5.80;99.90
61841;DHT22;47773;53.174;6.614;2023-03-16T08:46:34;5.90;99.90
61841;DHT22;47773;53.174;6.614;2023-03-16T08:49:00;5.90;99.90
61841;DHT22;47773;53.174;6.614;2023-03-16T08:51:25;5.90;99.90
61841;DHT22;47773;53.174;6.614;2023-03-16T08:53:52;5.90;99.90
61841;DHT22;47773;53.174;6.614;2023-03-16T08:56:18;5.90;99.90
61841;DHT22;47773;53.174;6.614;2023-03-16T08:58:44;5.90;99.90
61841;DHT22;47773;53.174;6.614;2023-03-16T09:01:15;5.90;99.90
61841;DHT22;47773;53.174;6.614;2023-03-16T09:03:41;5.90;99.90
61841;DHT22;47773;53.174;6.614;2023-03-16T09:06:11;5.90;99.90
61841;DHT22;47773;53.174;6.614;2023-03-16T09:08:38;5.90;99.90
61841;DHT22;47773;53.174;6.614;2023-03-16T09:11:10;5.90;99.90
61841;DHT22;47773;53.174;6.614;2023-03-16T09:13:37;5.90;99.90
61841;DHT22;47773;53.174;6.614;2023-03-16T09:16:05;5.90;99.90
61841;DHT22;47773;53.174;6.614;2023-03-16T09:18:31;5.90;99.90
61841;DHT22;47773;53.174;6.614;2023-03-16T09:21:02;5.90;99.90
61841;DHT22;47773;53.174;6.614;2023-03-16T09:23:29;6.00;99.90
61841;DHT22;47773;53.174;6.614;2023-03-16T09:26:00;6.00;99.90
61841;DHT22;47773;53.174;6.614;2023-03-16T09:28:28;6.00;99.90
61841;DHT22;47773;53.174;6.614;2023-03-16T09:30:56;6.00;99.90
61841;DHT22;47773;53.174;6.614;2023-03-16T09:33:26;6.00;99.90
61841;DHT22;47773;53.174;6.614;2023-03-16T09:35:54;5.90;99.90
61841;DHT22;47773;53.174;6.614;2023-03-16T09:38:22;6.00;99.90
61841;DHT22;47773;53.174;6.614;2023-03-16T09:41:01;6.00;99.90
61841;DHT22;47773;53.174;6.614;2023-03-16T09:43:43;6.10;99.90
61841;DHT22;47773;53.174;6.614;2023-03-16T09:46:28;6.10;99.90
61841;DHT22;47773;53.174;6.614;2023-03-16T09:48:56;6.20;99.90
61841;DHT22;47773;53.174;6.614;2023-03-16T09:54:09;6.40;99.90
61841;DHT22;47773;53.174;6.614;2023-03-16T09:56:40;6.50;99.90
61841;DHT22;47773;53.174;6.614;2023-03-16T09:59:13;6.60;99.90
61841;DHT22;47773;53.174;6.614;2023-03-16T10:07:49;6.70;99.90
61841;DHT22;47773;53.174;6.614;2023-03-16T10:10:26;6.60;99.90
61841;DHT22;47773;53.174;6.614;2023-03-16T10:12:58;6.60;99.90
61841;DHT22;47773;53.174;6.614;2023-03-16T10:15:28;6.60;99.90
61841;DHT22;47773;53.174;6.614;2023-03-16T10:18:19;6.60;99.90
61841;DHT22;47773;53.174;6.614;2023-03-16T10:20:47;6.60;99.90
61841;DHT22;47773;53.174;6.614;2023-03-16T10:23:19;6.60;99.90
61841;DHT22;47773;53.174;6.614;2023-03-16T10:25:51;6.60;99.90
61841;DHT22;47773;53.174;6.614;2023-03-16T10:28:22;6.60;99.90
61841;DHT22;47773;53.174;6.614;2023-03-16T10:30:51;6.60;99.90
61841;DHT22;47773;53.174;6.614;2023-03-16T10:36:02;6.60;99.90
61841;DHT22;47773;53.174;6.614;2023-03-16T10:38:36;6.60;99.90
61841;DHT22;47773;53.174;6.614;2023-03-16T10:43:54;6.60;99.90
61841;DHT22;47773;53.174;6.614;2023-03-16T10:46:22;6.60;99.90
61841;DHT22;47773;53.174;6.614;2023-03-16T10:48:54;6.60;99.90
61841;DHT22;47773;53.174;6.614;2023-03-16T10:51:26;6.60;99.90
61841;DHT22;47773;53.174;6.614;2023-03-16T10:53:56;6.60;99.90
61841;DHT22;47773;53.174;6.614;2023-03-16T10:56:33;6.60;99.90
61841;DHT22;47773;53.174;6.614;2023-03-16T10:59:00;6.60;99.90
61841;DHT22;47773;53.174;6.614;2023-03-16T11:01:27;6.60;99.90
61841;DHT22;47773;53.174;6.614;2023-03-16T11:03:55;6.60;99.90
61841;DHT22;47773;53.174;6.614;2023-03-16T11:06:31;6.60;99.90
61841;DHT22;47773;53.174;6.614;2023-03-16T11:09:09;6.70;99.90
61841;DHT22;47773;53.174;6.614;2023-03-16T11:11:37;6.70;99.90
61841;DHT22;47773;53.174;6.614;2023-03-16T11:14:09;6.70;99.90
61841;DHT22;47773;53.174;6.614;2023-03-16T11:19:26;6.70;99.90
61841;DHT22;47773;53.174;6.614;2023-03-16T11:21:55;6.70;99.90
61841;DHT22;47773;53.174;6.614;2023-03-16T11:24:38;6.70;99.90
61841;DHT22;47773;53.174;6.614;2023-03-16T11:32:32;6.90;99.90
61841;DHT22;47773;53.174;6.614;2023-03-16T11:35:00;7.00;99.90
61841;DHT22;47773;53.174;6.614;2023-03-16T11:56:44;7.40;99.90
61841;DHT22;47773;53.174;6.614;2023-03-16T11:59:32;7.40;99.90
61841;DHT22;47773;53.174;6.614;2023-03-16T12:05:07;7.50;99.90
61841;DHT22;47773;53.174;6.614;2023-03-16T12:10:33;7.60;99.90
61841;DHT22;47773;53.174;6.614;2023-03-16T12:16:00;7.80;99.90
61841;DHT22;47773;53.174;6.614;2023-03-16T12:19:02;7.80;99.90
61841;DHT22;47773;53.174;6.614;2023-03-16T12:21:39;8.00;99.90
61841;DHT22;47773;53.174;6.614;2023-03-16T12:24:13;8.10;99.90
61841;DHT22;47773;53.174;6.614;2023-03-16T12:26:41;8.20;99.90
61841;DHT22;47773;53.174;6.614;2023-03-16T12:29:33;8.30;99.90
61841;DHT22;47773;53.174;6.614;2023-03-16T12:32:24;8.40;99.90
61841;DHT22;47773;53.174;6.614;2023-03-16T12:37:57;8.50;99.90
61841;DHT22;47773;53.174;6.614;2023-03-16T12:40:45;8.50;99.90
61841;DHT22;47773;53.174;6.614;2023-03-16T12:43:41;8.60;99.90
61841;DHT22;47773;53.174;6.614;2023-03-16T12:46:12;8.60;99.90
61841;DHT22;47773;53.174;6.614;2023-03-16T12:48:47;8.70;99.90
61841;DHT22;47773;53.174;6.614;2023-03-16T12:51:14;8.80;99.90
61841;DHT22;47773;53.174;6.614;2023-03-16T12:53:45;8.90;99.90
61841;DHT22;47773;53.174;6.614;2023-03-16T12:56:42;8.90;99.90
61841;DHT22;47773;53.174;6.614;2023-03-16T12:59:24;8.90;99.90
61841;DHT22;47773;53.174;6.614;2023-03-16T13:02:01;8.90;99.90
61841;DHT22;47773;53.174;6.614;2023-03-16T13:04:39;8.80;99.90
61841;DHT22;47773;53.174;6.614;2023-03-16T13:07:06;8.90;99.90
61841;DHT22;47773;53.174;6.614;2023-03-16T13:09:35;8.90;99.90
61841;DHT22;47773;53.174;6.614;2023-03-16T13:12:06;8.80;99.90
61841;DHT22;47773;53.174;6.614;2023-03-16T13:14:42;9.00;99.90
61841;DHT22;47773;53.174;6.614;2023-03-16T13:19:40;8.90;99.90
61841;DHT22;47773;53.174;6.614;2023-03-16T13:24:57;8.90;99.90
61841;DHT22;47773;53.174;6.614;2023-03-16T13:27:32;9.00;99.90
61841;DHT22;47773;53.174;6.614;2023-03-16T13:32:41;9.00;99.90
61841;DHT22;47773;53.174;6.614;2023-03-16T13:35:10;9.10;99.90
61841;DHT22;47773;53.174;6.614;2023-03-16T13:37:39;9.10;99.90
61841;DHT22;47773;53.174;6.614;2023-03-16T13:40:43;9.20;99.90
61841;DHT22;47773;53.174;6.614;2023-03-16T13:43:18;9.30;99.90
61841;DHT22;47773;53.174;6.614;2023-03-16T13:45:46;9.40;99.90
61841;DHT22;47773;53.174;6.614;2023-03-16T13:48:14;9.40;99.90
61841;DHT22;47773;53.174;6.614;2023-03-16T13:50:41;9.50;99.90
61841;DHT22;47773;53.174;6.614;2023-03-16T13:53:30;9.60;99.90
61841;DHT22;47773;53.174;6.614;2023-03-16T13:55:58;9.60;99.90
61841;DHT22;47773;53.174;6.614;2023-03-16T13:58:33;9.60;99.90
61841;DHT22;47773;53.174;6.614;2023-03-16T14:01:01;9.60;99.90
61841;DHT22;47773;53.174;6.614;2023-03-16T14:03:38;9.60;99.90
61841;DHT22;47773;53.174;6.614;2023-03-16T14:06:16;9.60;99.90
61841;DHT22;47773;53.174;6.614;2023-03-16T14:08:51;9.60;99.90
61841;DHT22;47773;53.174;6.614;2023-03-16T14:11:18;9.60;99.90
61841;DHT22;47773;53.174;6.614;2023-03-16T14:13:53;9.50;99.90
61841;DHT22;47773;53.174;6.614;2023-03-16T14:16:25;9.60;99.90
61841;DHT22;47773;53.174;6.614;2023-03-16T14:19:11;9.60;99.90
61841;DHT22;47773;53.174;6.614;2023-03-16T14:21:43;9.60;99.90
61841;DHT22;47773;53.174;6.614;2023-03-16T14:24:30;9.50;99.90
61841;DHT22;47773;53.174;6.614;2023-03-16T14:26:57;9.60;99.90
61841;DHT22;47773;53.174;6.614;2023-03-16T14:29:34;9.60;99.90
61841;DHT22;47773;53.174;6.614;2023-03-16T14:32:00;9.60;99.90
61841;DHT22;47773;53.174;6.614;2023-03-16T14:36:51;9.60;99.90
61841;DHT22;47773;53.174;6.614;2023-03-16T14:39:19;9.60;99.90
61841;DHT22;47773;53.174;6.614;2023-03-16T14:41:48;9.60;99.90
61841;DHT22;47773;53.174;6.614;2023-03-16T14:44:21;9.70;99.90
61841;DHT22;47773;53.174;6.614;2023-03-16T14:46:48;9.70;99.90
61841;DHT22;47773;53.174;6.614;2023-03-16T14:49:27;9.70;99.90
61841;DHT22;47773;53.174;6.614;2023-03-16T14:52:01;9.70;99.90
61841;DHT22;47773;53.174;6.614;2023-03-16T14:54:28;9.80;99.90
61841;DHT22;47773;53.174;6.614;2023-03-16T14:57:02;9.80;99.90
61841;DHT22;47773;53.174;6.614;2023-03-16T14:59:28;9.90;99.90
61841;DHT22;47773;53.174;6.614;2023-03-16T15:01:54;9.90;99.90
61841;DHT22;47773;53.174;6.614;2023-03-16T15:04:38;10.00;99.90
61841;DHT22;47773;53.174;6.614;2023-03-16T15:09:47;10.10;99.90
61841;DHT22;47773;53.174;6.614;2023-03-16T15:12:15;10.10;99.90
61841;DHT22;47773;53.174;6.614;2023-03-16T15:14:42;10.10;99.90
61841;DHT22;47773;53.174;6.614;2023-03-16T15:17:26;10.00;99.90
61841;DHT22;47773;53.174;6.614;2023-03-16T15:19:52;10.00;99.90
61841;DHT22;47773;53.174;6.614;2023-03-16T15:22:30;10.00;99.90
61841;DHT22;47773;53.174;6.614;2023-03-16T15:24:56;10.00;99.90
61841;DHT22;47773;53.174;6.614;2023-03-16T15:27:27;10.00;99.90
61841;DHT22;47773;53.174;6.614;2023-03-16T15:29:56;10.00;99.90
61841;DHT22;47773;53.174;6.614;2023-03-16T15:32:22;10.00;99.90
61841;DHT22;47773;53.174;6.614;2023-03-16T15:34:47;10.00;99.90
61841;DHT22;47773;53.174;6.614;2023-03-16T15:37:17;10.00;99.90
61841;DHT22;47773;53.174;6.614;2023-03-16T15:39:45;10.00;99.90
61841;DHT22;47773;53.174;6.614;2023-03-16T15:42:18;9.90;99.90
61841;DHT22;47773;53.174;6.614;2023-03-16T15:44:45;10.00;99.90
61841;DHT22;47773;53.174;6.614;2023-03-16T15:47:11;10.00;99.90
61841;DHT22;47773;53.174;6.614;2023-03-16T15:49:37;10.00;99.90
61841;DHT22;47773;53.174;6.614;2023-03-16T15:52:05;10.00;99.90
61841;DHT22;47773;53.174;6.614;2023-03-16T15:54:35;10.00;99.90
61841;DHT22;47773;53.174;6.614;2023-03-16T15:57:01;10.00;99.90
61841;DHT22;47773;53.174;6.614;2023-03-16T15:59:33;10.00;99.90
61841;DHT22;47773;53.174;6.614;2023-03-16T16:02:00;10.00;99.90
61841;DHT22;47773;53.174;6.614;2023-03-16T16:04:26;10.00;99.90
61841;DHT22;47773;53.174;6.614;2023-03-16T16:06:53;10.00;99.90
61841;DHT22;47773;53.174;6.614;2023-03-16T16:09:20;10.00;99.90
61841;DHT22;47773;53.174;6.614;2023-03-16T16:11:46;10.00;99.90
61841;DHT22;47773;53.174;6.614;2023-03-16T16:14:21;10.00;99.90
61841;DHT22;47773;53.174;6.614;2023-03-16T16:16:47;10.00;99.90
61841;DHT22;47773;53.174;6.614;2023-03-16T16:19:14;10.00;99.90
61841;DHT22;47773;53.174;6.614;2023-03-16T16:21:40;10.00;99.90
61841;DHT22;47773;53.174;6.614;2023-03-16T16:24:07;10.00;99.90
61841;DHT22;47773;53.174;6.614;2023-03-16T16:26:42;10.00;99.90
61841;DHT22;47773;53.174;6.614;2023-03-16T16:29:15;10.00;99.90
61841;DHT22;47773;53.174;6.614;2023-03-16T16:31:41;10.00;99.90
61841;DHT22;47773;53.174;6.614;2023-03-16T16:34:17;9.90;99.90
61841;DHT22;47773;53.174;6.614;2023-03-16T16:36:43;9.90;99.90
61841;DHT22;47773;53.174;6.614;2023-03-16T16:39:09;9.90;99.90
61841;DHT22;47773;53.174;6.614;2023-03-16T16:41:36;9.90;99.90
61841;DHT22;47773;53.174;6.614;2023-03-16T16:44:02;9.90;99.90
61841;DHT22;47773;53.174;6.614;2023-03-16T16:46:39;9.90;99.90
61841;DHT22;47773;53.174;6.614;2023-03-16T16:49:21;9.80;99.90
61841;DHT22;47773;53.174;6.614;2023-03-16T16:51:48;9.80;99.90
61841;DHT22;47773;53.174;6.614;2023-03-16T16:54:17;9.80;99.90
61841;DHT22;47773;53.174;6.614;2023-03-16T16:56:44;9.80;99.90
61841;DHT22;47773;53.174;6.614;2023-03-16T16:59:23;9.70;99.90
61841;DHT22;47773;53.174;6.614;2023-03-16T17:01:51;9.70;99.90
61841;DHT22;47773;53.174;6.614;2023-03-16T17:04:24;9.70;99.90
61841;DHT22;47773;53.174;6.614;2023-03-16T17:06:58;9.70;99.90
61841;DHT22;47773;53.174;6.614;2023-03-16T17:09:27;9.60;99.90
61841;DHT22;47773;53.174;6.614;2023-03-16T17:11:53;9.50;99.90